Time;durP1;ratioP1;P1;durP2;ratioP2;P2;SDS_P1;SDS_P2;PMS_P1;PMS_P2;Temp;Humidity;BMP_temperature;BMP_pressure;BME280_temperature;BME280_humidity;BME280_pressure;Samples;Min_cycle;Max_cycle;Signal;HPM_P1;HPM_P2
2022/08/14 00:02:20;;;;;;;3.67;3.45;;;22.60;46.60;;;;;;5056579;28;20043;-54
2022/08/14 00:04:50;;;;;;;3.80;3.25;;;22.60;46.80;;;;;;5070188;28;20051;-52
2022/08/14 00:07:19;;;;;;;4.13;3.67;;;22.60;46.90;;;;;;5069964;28;20062;-51
2022/08/14 00:09:50;;;;;;;4.00;3.70;;;22.50;47.30;;;;;;5049568;28;20045;-54
2022/08/14 00:12:42;;;;;;;3.80;3.50;;;22.50;47.20;;;;;;5064192;28;20444;-52
2022/08/14 00:15:22;;;;;;;4.05;3.70;;;22.50;47.40;;;;;;5070091;28;20119;-53
2022/08/14 00:17:51;;;;;;;4.07;3.67;;;22.50;47.60;;;;;;5065055;28;20445;-50
2022/08/14 00:20:23;;;;;;;4.97;3.78;;;22.40;47.40;;;;;;5054472;28;20393;-53
2022/08/14 00:23:13;;;;;;;4.22;3.72;;;22.40;47.50;;;;;;5070312;28;20573;-54
2022/08/14 00:25:53;;;;;;;4.05;3.65;;;22.40;47.60;;;;;;5069642;28;20040;-50
2022/08/14 00:28:32;;;;;;;4.10;3.80;;;22.40;47.90;;;;;;5053530;28;20413;-51
2022/08/14 00:31:05;;;;;;;3.78;3.47;;;22.40;47.50;;;;;;5051887;28;20062;-50
2022/08/14 00:33:36;;;;;;;4.10;3.80;;;22.30;48.00;;;;;;5070440;28;20106;-54
2022/08/14 00:36:20;;;;;;;4.00;3.70;;;22.30;47.60;;;;;;5062176;28;20049;-54
2022/08/14 00:39:10;;;;;;;4.30;4.00;;;22.30;47.90;;;;;;5065037;28;20036;-54
2022/08/14 00:41:39;;;;;;;;;;;22.20;47.70;;;;;;5070563;28;20102;-53
2022/08/14 00:44:08;;;;;;;4.28;3.90;;;22.30;46.80;;;;;;5059184;28;20344;-49
2022/08/14 00:46:39;;;;;;;5.10;3.75;;;22.40;47.40;;;;;;5022801;28;20095;-50
2022/08/14 00:49:11;;;;;;;4.88;4.00;;;22.20;47.60;;;;;;5063726;28;20049;-50
2022/08/14 00:51:42;;;;;;;4.88;4.18;;;22.20;47.80;;;;;;5070190;28;20036;-54
2022/08/14 00:54:13;;;;;;;4.30;3.95;;;22.20;47.80;;;;;;5070119;28;20083;-50
2022/08/14 00:56:51;;;;;;;4.32;3.85;;;22.20;48.20;;;;;;5056307;28;20241;-52
2022/08/14 00:59:30;;;;;;;4.50;3.53;;;22.10;47.90;;;;;;5058756;28;20090;-54
2022/08/14 01:02:00;;;;;;;4.30;3.90;;;22.10;48.30;;;;;;5074256;28;20044;-50
2022/08/14 01:04:32;;;;;;;4.43;4.03;;;22.10;48.20;;;;;;5058249;28;20032;-50
2022/08/14 01:07:22;;;;;;;3.80;3.50;;;22.10;48.20;;;;;;5051369;28;20121;-52
2022/08/14 01:09:55;;;;;;;5.50;4.03;;;22.00;48.00;;;;;;5039353;28;20045;-53
2022/08/14 01:12:27;;;;;;;5.70;3.65;;;22.00;48.20;;;;;;5073024;28;20059;-52
2022/08/14 01:14:58;;;;;;;4.18;3.83;;;22.00;48.20;;;;;;5053906;28;20041;-50
2022/08/14 01:23:16;;;;;;;4.25;3.92;;;21.90;48.60;;;;;;5041308;28;20066;-52
2022/08/14 01:25:48;;;;;;;4.85;4.40;;;21.80;48.60;;;;;;5054011;28;20075;-54
2022/08/14 01:28:18;;;;;;;6.05;3.90;;;21.80;48.40;;;;;;5072623;28;20094;-54
2022/08/14 01:31:17;;;;;;;6.43;4.13;;;21.80;48.60;;;;;;5071351;28;20060;-53
2022/08/14 01:33:49;;;;;;;4.57;4.18;;;21.70;49.20;;;;;;5053513;28;20139;-50
2022/08/14 01:36:36;;;;;;;4.45;4.10;;;21.70;49.10;;;;;;5060775;28;20139;-54
2022/08/14 01:39:14;;;;;;;4.93;4.53;;;21.70;48.60;;;;;;5073497;28;20052;-53
2022/08/14 01:41:48;;;;;;;4.20;3.90;;;21.60;48.90;;;;;;5060069;28;20045;-52
2022/08/14 01:44:29;;;;;;;4.72;3.92;;;21.60;49.20;;;;;;5058320;28;20386;-54
2022/08/14 01:47:12;;;;;;;3.92;3.63;;;21.60;49.20;;;;;;5071353;28;20040;-54
2022/08/14 01:49:50;;;;;;;4.35;4.05;;;21.50;49.10;;;;;;5073327;28;20052;-50
2022/08/14 01:52:28;;;;;;;4.10;3.80;;;21.50;49.00;;;;;;5057258;28;20717;-53
2022/08/14 01:55:16;;;;;;;3.95;3.63;;;21.50;49.10;;;;;;5071471;28;20052;-54
2022/08/14 01:57:45;;;;;;;4.05;3.42;;;21.40;49.10;;;;;;5055311;28;20445;-52
2022/08/14 02:00:37;;;;;;;4.35;4.03;;;21.40;49.60;;;;;;5062316;28;20128;-54
2022/08/14 02:03:06;;;;;;;3.97;3.67;;;21.40;49.30;;;;;;5054275;28;20037;-54
2022/08/14 02:05:35;;;;;;;4.10;3.78;;;21.30;49.40;;;;;;5072260;28;20068;-53
2022/08/14 02:08:06;;;;;;;4.63;4.22;;;21.30;49.50;;;;;;5072036;28;20041;-50
2022/08/14 02:10:38;;;;;;;4.05;3.75;;;21.30;49.80;;;;;;5058730;28;20123;-53
2022/08/14 02:13:17;;;;;;;4.28;3.92;;;21.30;49.90;;;;;;5066875;28;20044;-52
2022/08/14 02:15:45;;;;;;;4.88;4.45;;;21.20;49.90;;;;;;5071558;28;20040;-54
2022/08/14 02:18:15;;;;;;;4.57;4.25;;;21.20;50.00;;;;;;5064195;28;20416;-50
2022/08/14 02:20:47;;;;;;;4.03;3.72;;;21.20;50.00;;;;;;5053391;28;20040;-51
2022/08/14 02:23:17;;;;;;;5.40;3.95;;;21.10;50.10;;;;;;5066873;28;20040;-50
2022/08/14 02:26:02;;;;;;;4.93;4.43;;;21.10;50.00;;;;;;5071533;28;20094;-50
2022/08/14 02:28:53;;;;;;;4.22;3.92;;;21.10;49.90;;;;;;5058718;28;20124;-54
2022/08/14 02:31:31;;;;;;;4.85;4.38;;;21.10;50.10;;;;;;5057511;28;20405;-53
2022/08/14 02:34:18;;;;;;;4.93;4.47;;;21.00;50.50;;;;;;5039049;28;20060;-53
2022/08/14 02:36:57;;;;;;;4.60;4.10;;;21.00;50.80;;;;;;5071899;28;20044;-51
2022/08/14 02:39:37;;;;;;;4.90;4.40;;;21.00;50.40;;;;;;5047008;28;20083;-54
2022/08/14 02:42:11;;;;;;;4.70;4.30;;;21.00;50.70;;;;;;5062970;28;20118;-54
2022/08/14 02:44:45;;;;;;;5.30;4.60;;;21.00;50.90;;;;;;5071688;28;20518;-51
2022/08/14 02:47:16;;;;;;;5.05;4.65;;;20.90;50.60;;;;;;5063109;28;20465;-53
2022/08/14 02:49:49;;;;;;;5.35;4.65;;;20.90;50.50;;;;;;5063468;28;20066;-53
2022/08/14 02:52:24;;;;;;;4.78;4.38;;;20.90;50.90;;;;;;5038335;28;20056;-53
2022/08/14 02:55:11;;;;;;;6.10;4.80;;;20.90;50.70;;;;;;5069143;28;20459;-54
2022/08/14 02:57:50;;;;;;;4.93;4.43;;;20.90;50.70;;;;;;5045172;28;20469;-53
2022/08/14 03:00:31;;;;;;;4.20;3.80;;;20.90;50.90;;;;;;5058903;28;20044;-52
2022/08/14 03:02:58;;;;;;;4.65;4.25;;;20.80;50.80;;;;;;5071624;28;20459;-52
2022/08/14 03:05:30;;;;;;;4.85;4.32;;;20.80;50.90;;;;;;5069386;28;20066;-52
2022/08/14 03:08:09;;;;;;;4.68;4.28;;;20.80;51.20;;;;;;5053535;28;20608;-51
2022/08/14 03:10:41;;;;;;;5.32;4.82;;;20.80;51.50;;;;;;5071341;28;20106;-51
2022/08/14 03:13:19;;;;;;;4.90;4.47;;;20.80;51.10;;;;;;5071686;28;20066;-50
2022/08/14 03:15:53;;;;;;;5.20;4.70;;;20.80;51.20;;;;;;5055982;28;20068;-54
2022/08/14 03:18:26;;;;;;;5.70;5.20;;;20.80;51.60;;;;;;5056367;28;20049;-54
2022/08/14 03:21:06;;;;;;;5.57;5.00;;;20.80;51.60;;;;;;5071297;28;20090;-54
2022/08/14 03:23:35;;;;;;;4.93;4.50;;;20.70;51.60;;;;;;5071153;28;20061;-52
2022/08/14 03:26:08;;;;;;;10.10;4.75;;;20.70;51.20;;;;;;5051028;28;20112;-52
2022/08/14 03:28:46;;;;;;;5.38;4.90;;;20.70;51.60;;;;;;5061123;28;20040;-50
2022/08/14 03:31:21;;;;;;;5.43;5.00;;;20.70;51.50;;;;;;5040455;28;20040;-53
2022/08/14 03:33:51;;;;;;;5.22;4.82;;;20.60;51.50;;;;;;5050278;28;20136;-51
2022/08/14 03:36:21;;;;;;;5.60;4.93;;;20.60;51.70;;;;;;5050628;28;20041;-52
2022/08/14 03:39:09;;;;;;;6.50;5.78;;;20.60;51.80;;;;;;5069361;28;20123;-54
2022/08/14 03:41:54;;;;;;;5.45;4.93;;;20.60;51.90;;;;;;5069395;28;20493;-50
2022/08/14 03:44:25;;;;;;;6.30;5.20;;;20.60;52.40;;;;;;5060037;28;20442;-50
2022/08/14 03:47:12;;;;;;;4.78;4.32;;;20.50;51.90;;;;;;5054839;28;20068;-54
2022/08/14 03:49:45;;;;;;;5.68;5.13;;;20.50;51.90;;;;;;5071068;28;20098;-54
2022/08/14 03:52:16;;;;;;;8.77;6.53;;;20.50;52.10;;;;;;5056157;28;20036;-53
2022/08/14 03:55:08;;;;;;;5.80;5.30;;;20.50;52.10;;;;;;5050067;28;20049;-54
2022/08/14 03:57:38;;;;;;;5.90;5.38;;;20.50;52.50;;;;;;5064590;28;20088;-54
2022/08/14 04:00:10;;;;;;;5.82;5.22;;;20.40;52.20;;;;;;5070704;28;20094;-54
2022/08/14 04:02:57;;;;;;;6.00;5.40;;;20.50;52.50;;;;;;5069305;28;20127;-50
2022/08/14 04:05:25;;;;;;;6.57;5.63;;;20.40;52.20;;;;;;5045279;28;20048;-54
2022/08/14 04:07:57;;;;;;;5.65;5.22;;;20.40;52.50;;;;;;5066818;28;20037;-52
2022/08/14 04:10:46;;;;;;;5.22;4.45;;;20.40;52.60;;;;;;5068082;28;20072;-52
2022/08/14 04:13:17;;;;;;;7.33;6.40;;;20.30;52.60;;;;;;5047936;28;20028;-53
2022/08/14 04:15:49;;;;;;;5.85;5.18;;;20.30;52.60;;;;;;5069414;28;20048;-51
2022/08/14 04:18:31;;;;;;;5.45;5.05;;;20.30;52.80;;;;;;5038784;28;20037;-50
2022/08/14 04:21:04;;;;;;;6.10;5.60;;;20.30;53.00;;;;;;5047310;28;20072;-54
2022/08/14 04:23:32;;;;;;;6.47;5.70;;;20.30;52.70;;;;;;5058568;28;20400;-54
2022/08/14 04:26:01;;;;;;;6.38;5.78;;;20.30;52.90;;;;;;5070314;28;20036;-51
2022/08/14 04:28:28;;;;;;;5.70;5.15;;;20.20;53.10;;;;;;5084362;22;20102;-47
2022/08/14 04:31:17;;;;;;;7.55;5.70;;;20.20;53.10;;;;;;5049667;28;20044;-51
2022/08/14 04:34:09;;;;;;;6.07;5.47;;;20.20;53.30;;;;;;5068681;28;20051;-52
2022/08/14 04:45:20;;;;;;;5.95;5.40;;;20.20;53.70;;;;;;5074362;28;20047;-52
2022/08/14 04:50:39;;;;;;;6.55;5.95;;;20.20;54.00;;;;;;5039698;28;20049;-50
2022/08/14 04:53:17;;;;;;;6.03;5.45;;;20.20;54.10;;;;;;5050696;28;20044;-54
2022/08/14 04:55:49;;;;;;;6.90;5.40;;;20.20;54.40;;;;;;5074222;28;20037;-52
2022/08/14 04:58:28;;;;;;;7.30;6.22;;;20.20;54.30;;;;;;5065755;28;20515;-53
2022/08/14 05:01:00;;;;;;;;;;;20.30;54.70;;;;;;5049308;28;20049;-53
2022/08/14 05:03:30;;;;;;;5.78;5.18;;;20.30;53.70;;;;;;5074704;28;19928;-53
2022/08/14 05:05:59;;;;;;;6.22;5.68;;;20.30;54.10;;;;;;5074210;28;20063;-53
2022/08/14 05:08:28;;;;;;;7.22;5.75;;;20.30;54.50;;;;;;5061296;28;20096;-53
2022/08/14 05:11:18;;;;;;;6.30;5.70;;;20.30;54.80;;;;;;5058755;28;20165;-53
2022/08/14 05:13:45;;;;;;;6.75;5.15;;;20.40;54.80;;;;;;5074131;28;20048;-52
2022/08/14 05:16:33;;;;;;;5.63;5.10;;;20.40;55.00;;;;;;5068519;28;20445;-52
2022/08/14 05:18:59;;;;;;;7.63;6.63;;;20.40;55.10;;;;;;5058970;28;20044;-49
2022/08/14 05:21:46;;;;;;;6.70;6.07;;;20.40;55.30;;;;;;5073933;28;20127;-49
2022/08/14 05:24:33;;;;;;;6.32;5.82;;;20.40;55.40;;;;;;5073972;28;20029;-53
2022/08/14 05:27:02;;;;;;;6.55;5.93;;;20.50;55.50;;;;;;5059272;28;20041;-54
2022/08/14 05:29:30;;;;;;;7.22;6.25;;;20.50;55.80;;;;;;5061588;28;20102;-53
2022/08/14 05:31:59;;;;;;;7.30;6.03;;;20.60;56.00;;;;;;5074181;28;20060;-54
2022/08/14 05:34:29;;;;;;;6.60;6.00;;;20.60;56.10;;;;;;5073598;28;20044;-54
2022/08/14 05:37:04;;;;;;;5.82;5.32;;;20.60;56.30;;;;;;5057680;28;20048;-54
2022/08/14 05:39:33;;;;;;;6.70;6.10;;;20.70;56.50;;;;;;5053950;28;20045;-53
2022/08/14 05:42:02;;;;;;;8.23;5.88;;;20.70;56.60;;;;;;5073879;28;20055;-52
2022/08/14 05:44:53;;;;;;;;;;;20.70;56.70;;;;;;5073128;28;20040;-52
2022/08/14 05:47:24;;;;;;;5.93;5.32;;;20.90;55.80;;;;;;5049828;28;19924;-53
2022/08/14 05:50:00;;;;;;;9.43;7.45;;;20.90;56.10;;;;;;5054922;28;20493;-53
2022/08/14 05:52:29;;;;;;;6.43;5.75;;;20.90;56.70;;;;;;5055870;28;20408;-53
2022/08/14 05:55:12;;;;;;;6.32;5.72;;;21.00;57.10;;;;;;5061297;28;20124;-52
2022/08/14 05:57:49;;;;;;;6.75;6.15;;;21.10;57.30;;;;;;5065182;28;20052;-53
2022/08/14 06:00:21;;;;;;;6.57;5.88;;;21.10;58.30;;;;;;5073536;28;20412;-49
2022/08/14 06:02:59;;;;;;;7.80;6.82;;;21.20;57.80;;;;;;5055476;28;20556;-53
2022/08/14 06:05:32;;;;;;;7.88;7.07;;;21.30;58.00;;;;;;5047033;28;20049;-53
2022/08/14 06:08:01;;;;;;;7.80;7.10;;;21.30;58.00;;;;;;5044460;28;20061;-53
2022/08/14 06:10:34;;;;;;;7.05;6.05;;;21.40;58.10;;;;;;5047812;28;20048;-53
2022/08/14 06:13:02;;;;;;;8.82;7.15;;;21.50;58.30;;;;;;5050217;28;20748;-53
2022/08/14 06:15:28;;;;;;;6.90;6.20;;;21.50;58.30;;;;;;5048835;28;20049;-52
2022/08/14 06:17:56;;;;;;;7.80;7.10;;;21.60;58.50;;;;;;5053518;28;20110;-53
2022/08/14 06:20:26;;;;;;;8.20;7.43;;;21.70;58.60;;;;;;5056500;28;20048;-53
2022/08/14 06:22:54;;;;;;;8.00;7.10;;;21.70;58.00;;;;;;5034993;28;20556;-52
2022/08/14 06:25:22;;;;;;;7.95;6.38;;;21.80;58.50;;;;;;5046183;28;20036;-50
2022/08/14 06:27:51;;;;;;;11.13;6.82;;;21.90;58.30;;;;;;5050707;28;20057;-54
2022/08/14 06:30:21;;;;;;;9.15;7.20;;;22.00;58.20;;;;;;5072575;28;20052;-50
2022/08/14 06:32:49;;;;;;;7.53;6.82;;;22.10;58.20;;;;;;5068036;28;20044;-50
2022/08/14 06:35:22;;;;;;;6.88;6.28;;;22.20;58.60;;;;;;5041336;28;20404;-53
2022/08/14 06:37:51;;;;;;;12.13;7.15;;;22.20;58.70;;;;;;5049207;28;20095;-53
2022/08/14 06:40:23;;;;;;;6.75;6.15;;;22.30;58.20;;;;;;5072473;28;20044;-53
2022/08/14 06:43:09;;;;;;;6.90;6.35;;;22.40;57.80;;;;;;5038201;28;20049;-54
2022/08/14 06:45:39;;;;;;;10.05;6.90;;;22.50;58.40;;;;;;5052391;28;20041;-54
2022/08/14 06:48:19;;;;;;;7.93;7.22;;;22.60;58.00;;;;;;5050371;28;20181;-53
2022/08/14 06:50:47;;;;;;;7.72;6.85;;;22.70;57.30;;;;;;5044485;28;20099;-52
2022/08/14 06:53:15;;;;;;;7.13;6.53;;;22.80;56.70;;;;;;5062316;28;20045;-53
2022/08/14 06:55:44;;;;;;;6.85;6.15;;;22.90;56.40;;;;;;5071455;28;20048;-52
2022/08/14 06:58:24;;;;;;;8.57;6.63;;;23.00;56.30;;;;;;5065054;28;20063;-50
2022/08/14 07:06:49;;;;;;;7.13;6.43;;;23.30;56.00;;;;;;5056269;28;20119;-54
2022/08/14 07:09:17;;;;;;;7.25;6.43;;;23.50;55.60;;;;;;5051252;28;20045;-53
2022/08/14 07:11:50;;;;;;;9.20;6.90;;;23.50;55.60;;;;;;5055859;28;20123;-53
2022/08/14 07:14:17;;;;;;;7.05;6.38;;;23.60;55.20;;;;;;5071394;28;20068;-54
2022/08/14 07:16:43;;;;;;;7.45;6.82;;;23.70;55.00;;;;;;5071022;28;20048;-53
2022/08/14 07:19:11;;;;;;;6.88;6.32;;;23.80;55.10;;;;;;5059320;28;20057;-54
2022/08/14 07:21:38;;;;;;;6.82;5.72;;;23.90;54.50;;;;;;5036841;28;20033;-54
2022/08/14 07:24:05;;;;;;;6.63;5.78;;;24.00;54.10;;;;;;5069203;28;20101;-54
2022/08/14 07:26:35;;;;;;;6.15;5.65;;;24.10;53.80;;;;;;5071445;28;20720;-54
2022/08/14 07:29:06;;;;;;;7.72;5.72;;;24.20;53.70;;;;;;5060560;28;20037;-52
2022/08/14 07:31:33;;;;;;;6.93;6.15;;;24.30;53.80;;;;;;5060422;28;20115;-54
2022/08/14 07:34:01;;;;;;;6.10;5.47;;;24.40;53.80;;;;;;5071296;28;20579;-54
2022/08/14 07:36:29;;;;;;;6.28;5.78;;;24.50;53.30;;;;;;5066746;28;20040;-53
2022/08/14 07:39:01;;;;;;;6.43;5.90;;;24.50;53.20;;;;;;5040509;28;20103;-54
2022/08/14 07:41:39;;;;;;;5.70;5.20;;;24.70;53.20;;;;;;5052827;28;20048;-54
2022/08/14 07:44:10;;;;;;;5.97;5.47;;;24.80;52.80;;;;;;5070588;28;20523;-53
2022/08/14 07:46:57;;;;;;;8.10;5.75;;;24.90;52.90;;;;;;5050362;28;20159;-53
2022/08/14 07:49:25;;;;;;;8.15;5.82;;;25.00;52.10;;;;;;5046873;28;20053;-50
2022/08/14 07:51:52;;;;;;;6.00;5.40;;;25.10;51.80;;;;;;5053742;28;20049;-51
2022/08/14 07:54:19;;;;;;;5.95;5.45;;;25.10;51.50;;;;;;5071123;28;20044;-51
2022/08/14 07:56:56;;;;;;;6.13;5.53;;;25.20;51.30;;;;;;5054070;28;20041;-54
2022/08/14 07:59:26;;;;;;;5.78;5.10;;;25.30;51.00;;;;;;5049928;28;20052;-52
2022/08/14 08:02:10;;;;;;;5.95;5.20;;;25.40;50.90;;;;;;5049359;28;20122;-51
2022/08/14 08:04:48;;;;;;;6.07;5.53;;;25.50;51.80;;;;;;5050463;28;20466;-54
2022/08/14 08:07:15;;;;;;;5.82;5.32;;;25.60;50.90;;;;;;5049972;28;20039;-54
2022/08/14 08:09:47;;;;;;;6.25;5.75;;;25.70;50.70;;;;;;5062987;28;20420;-54
2022/08/14 08:12:20;;;;;;;7.60;6.10;;;25.70;50.50;;;;;;5070989;28;20409;-54
2022/08/14 08:14:56;;;;;;;6.07;5.53;;;25.80;50.50;;;;;;5070848;28;20048;-54
2022/08/14 08:17:36;;;;;;;7.10;6.15;;;25.90;50.20;;;;;;5052628;28;20127;-51
2022/08/14 08:20:16;;;;;;;6.50;5.70;;;26.00;49.80;;;;;;5068961;28;20496;-52
2022/08/14 08:22:48;;;;;;;5.95;5.47;;;26.00;49.40;;;;;;5056214;28;20437;-54
2022/08/14 08:25:23;;;;;;;6.28;5.65;;;26.10;49.80;;;;;;5046911;28;20058;-52
2022/08/14 08:28:17;;;;;;;6.45;5.85;;;26.20;49.60;;;;;;5051857;28;20045;-54
2022/08/14 08:31:02;;;;;;;6.45;5.85;;;26.30;49.50;;;;;;5058187;28;20056;-53
2022/08/14 08:33:31;;;;;;;8.23;5.72;;;26.30;49.50;;;;;;5059231;28;20085;-52
2022/08/14 08:36:06;;;;;;;7.43;5.90;;;26.40;49.20;;;;;;5050687;28;20037;-52
2022/08/14 08:38:34;;;;;;;6.18;5.68;;;26.40;49.40;;;;;;5064231;28;20044;-52
2022/08/14 08:41:21;;;;;;;6.55;5.85;;;26.50;49.90;;;;;;5049505;28;20045;-52
2022/08/14 08:43:49;;;;;;;7.70;6.40;;;26.50;48.90;;;;;;5048749;28;20041;-54
2022/08/14 08:46:19;;;;;;;6.30;5.65;;;26.60;48.80;;;;;;5064750;28;20051;-51
2022/08/14 08:48:51;;;;;;;9.95;6.50;;;26.60;48.70;;;;;;5070628;28;20044;-53
2022/08/14 08:51:40;;;;;;;5.47;4.97;;;26.70;48.70;;;;;;5061444;28;20059;-50
2022/08/14 08:54:10;;;;;;;6.50;5.90;;;26.80;47.70;;;;;;5040169;28;20129;-53
2022/08/14 08:56:48;;;;;;;6.72;5.53;;;26.80;47.80;;;;;;5057169;28;20132;-53
2022/08/14 08:59:28;;;;;;;7.20;6.35;;;26.90;47.90;;;;;;5062336;28;20433;-54
2022/08/14 09:02:06;;;;;;;5.25;4.85;;;27.00;48.30;;;;;;5047909;28;20448;-53
2022/08/14 09:04:38;;;;;;;5.82;5.32;;;27.10;47.40;;;;;;5054512;28;20087;-53
2022/08/14 09:07:25;;;;;;;5.72;5.15;;;27.10;47.30;;;;;;5042559;28;20091;-52
2022/08/14 09:09:55;;;;;;;5.97;5.47;;;27.20;47.20;;;;;;5047162;28;20094;-54
2022/08/14 09:12:32;;;;;;;6.40;5.90;;;27.30;47.00;;;;;;5040730;28;20103;-51
2022/08/14 09:15:05;;;;;;;5.10;4.70;;;27.40;47.00;;;;;;5064083;28;20504;-53
2022/08/14 09:17:38;;;;;;;5.47;4.97;;;27.40;46.40;;;;;;5059358;28;20049;-53
2022/08/14 09:20:07;;;;;;;5.85;5.38;;;27.60;46.00;;;;;;5073945;28;20051;-53
2022/08/14 09:22:39;;;;;;;6.18;4.75;;;27.60;45.70;;;;;;5054148;28;20037;-54
2022/08/14 09:25:15;;;;;;;5.63;5.03;;;27.70;45.60;;;;;;5057446;28;20144;-52
2022/08/14 09:27:45;;;;;;;5.65;5.22;;;27.80;45.50;;;;;;5059753;28;20037;-54
2022/08/14 09:30:12;;;;;;;5.50;5.00;;;27.90;45.50;;;;;;5073842;28;20037;-53
2022/08/14 09:33:02;;;;;;;5.28;4.88;;;28.00;45.20;;;;;;5055914;28;20041;-54
2022/08/14 09:36:14;;;;;;;7.22;5.63;;;28.00;45.20;;;;;;5073111;28;20102;-53
2022/08/14 09:39:00;;;;;;;5.07;4.70;;;28.20;44.70;;;;;;5016226;28;20053;-54
2022/08/14 09:41:44;;;;;;;5.78;5.20;;;28.20;44.70;;;;;;5043358;28;20368;-49
2022/08/14 09:44:55;;;;;;;5.82;5.35;;;28.30;44.30;;;;;;5064698;28;20123;-54
2022/08/14 09:47:44;;;;;;;5.90;5.40;;;28.40;44.30;;;;;;5032996;28;20486;-52
2022/08/14 09:50:44;;;;;;;5.80;4.70;;;28.40;43.50;;;;;;5040735;28;20711;-54
2022/08/14 09:53:15;;;;;;;4.97;4.53;;;28.50;43.20;;;;;;5044166;28;20098;-54
2022/08/14 09:55:57;;;;;;;5.38;4.88;;;28.50;43.00;;;;;;5072236;28;20044;-54
2022/08/14 09:58:38;;;;;;;5.30;4.80;;;28.60;43.50;;;;;;5053329;28;20045;-52
2022/08/14 10:01:18;;;;;;;5.32;4.47;;;28.70;43.10;;;;;;5065402;28;20075;-53
2022/08/14 10:03:51;;;;;;;5.65;5.10;;;28.80;42.60;;;;;;5068267;28;20523;-52
2022/08/14 10:06:28;;;;;;;5.30;4.90;;;28.80;42.10;;;;;;5057408;28;20072;-50
2022/08/14 10:09:01;;;;;;;4.85;4.43;;;28.90;42.30;;;;;;5052978;28;20100;-53
2022/08/14 10:11:36;;;;;;;6.93;4.95;;;29.00;42.30;;;;;;5052442;28;20044;-51
2022/08/14 10:14:17;;;;;;;5.00;4.60;;;29.00;41.90;;;;;;5073009;28;20046;-54
2022/08/14 10:16:57;;;;;;;5.00;4.60;;;29.10;41.70;;;;;;5058416;28;20041;-53
2022/08/14 10:19:27;;;;;;;4.90;4.50;;;29.20;41.40;;;;;;5052189;28;20094;-54
2022/08/14 10:22:09;;;;;;;5.57;5.18;;;29.30;41.20;;;;;;5052751;28;20431;-51
2022/08/14 10:24:57;;;;;;;5.07;3.95;;;29.40;40.30;;;;;;5052855;28;20140;-51
2022/08/14 10:27:27;;;;;;;4.88;4.47;;;29.50;40.80;;;;;;5044774;28;20110;-49
2022/08/14 10:30:00;;;;;;;5.25;4.82;;;29.60;41.10;;;;;;5065832;28;20043;-52
2022/08/14 10:32:28;;;;;;;5.05;4.68;;;29.70;40.30;;;;;;5038892;28;20076;-52
2022/08/14 10:35:15;;;;;;;5.53;4.65;;;29.80;40.60;;;;;;5064606;28;20051;-52
2022/08/14 10:37:48;;;;;;;5.10;4.70;;;29.90;40.30;;;;;;5041580;28;20048;-53
2022/08/14 10:40:26;;;;;;;5.07;4.57;;;30.00;40.20;;;;;;5072397;28;20047;-53
2022/08/14 10:43:19;;;;;;;4.80;4.25;;;30.00;39.70;;;;;;5069086;28;20043;-54
2022/08/14 10:45:54;;;;;;;4.85;4.55;;;30.10;39.40;;;;;;5033770;28;20041;-53
2022/08/14 10:48:57;;;;;;;4.90;4.50;;;30.30;39.40;;;;;;5079950;22;20044;31
2022/08/14 10:51:28;;;;;;;5.68;4.80;;;30.50;39.00;;;;;;4996334;28;20045;-53
2022/08/14 10:53:57;;;;;;;;;;;30.40;38.90;;;;;;5000624;28;20046;-50
2022/08/14 10:56:32;;;;;;;4.60;4.20;;;30.50;39.80;;;;;;4992678;28;19984;-53
2022/08/14 10:59:07;;;;;;;4.68;4.32;;;30.50;38.60;;;;;;4994836;28;20046;-51
2022/08/14 11:01:36;;;;;;;4.20;3.90;;;30.60;38.60;;;;;;4991619;28;20065;-52
2022/08/14 11:04:19;;;;;;;4.38;3.97;;;30.60;38.10;;;;;;4991046;28;20046;-51
2022/08/14 11:06:55;;;;;;;4.63;4.22;;;30.70;37.90;;;;;;4993729;28;20035;-50
2022/08/14 11:09:22;;;;;;;5.47;4.18;;;30.80;38.20;;;;;;4968277;28;20038;-52
2022/08/14 11:11:55;;;;;;;4.43;4.03;;;30.90;37.80;;;;;;4991793;28;20496;-52
2022/08/14 11:14:53;;;;;;;3.80;3.60;;;30.90;37.60;;;;;;5004987;28;20551;-49
2022/08/14 11:17:30;;;;;;;4.72;4.40;;;31.10;37.40;;;;;;4993113;28;20517;-50
2022/08/14 11:19:59;;;;;;;4.50;4.20;;;31.20;36.80;;;;;;4990992;28;20050;-51
2022/08/14 11:22:29;;;;;;;4.40;4.00;;;31.30;36.70;;;;;;4996028;28;20507;-50
2022/08/14 11:25:17;;;;;;;3.75;3.33;;;31.40;36.40;;;;;;4998066;28;20128;-50
2022/08/14 11:27:45;;;;;;;3.88;3.60;;;31.40;36.50;;;;;;4991026;28;20046;-50
2022/08/14 11:30:18;;;;;;;3.97;3.58;;;31.50;36.20;;;;;;4991422;28;20050;-49
2022/08/14 11:33:06;;;;;;;3.85;3.53;;;31.50;36.40;;;;;;4992746;28;20117;-54
2022/08/14 11:35:36;;;;;;;3.63;3.42;;;31.60;36.20;;;;;;5004437;28;20050;-50
2022/08/14 11:38:14;;;;;;;3.75;3.47;;;31.70;37.00;;;;;;4997046;28;20057;-52
2022/08/14 11:40:44;;;;;;;4.47;4.18;;;31.80;35.70;;;;;;5002317;28;20494;-50
2022/08/14 11:43:14;;;;;;;3.42;3.20;;;31.90;35.20;;;;;;4996771;28;20053;-51
2022/08/14 11:45:47;;;;;;;3.80;3.58;;;32.00;34.90;;;;;;5006073;28;20049;-54
2022/08/14 11:48:23;;;;;;;3.63;3.42;;;32.10;35.00;;;;;;4992384;28;20054;-50
2022/08/14 11:51:22;;;;;;;3.30;3.10;;;32.10;34.50;;;;;;4992106;28;20061;-52
2022/08/14 11:54:05;;;;;;;4.38;3.83;;;32.20;34.40;;;;;;5000847;28;20088;-54
2022/08/14 11:56:40;;;;;;;3.80;3.53;;;32.30;34.80;;;;;;4998964;28;20038;-52
2022/08/14 11:59:14;;;;;;;3.40;3.20;;;32.30;33.60;;;;;;5006330;28;20046;-50
2022/08/14 12:01:41;;;;;;;4.18;3.22;;;32.40;34.10;;;;;;5000355;28;20049;-54
2022/08/14 12:04:17;;;;;;;3.58;3.33;;;32.50;33.60;;;;;;4990178;28;20046;-52
2022/08/14 12:06:59;;;;;;;5.53;3.40;;;32.50;32.90;;;;;;4991446;28;20491;-54
2022/08/14 12:09:29;;;;;;;3.30;3.10;;;32.70;34.00;;;;;;5010885;28;20409;-51
2022/08/14 12:11:57;;;;;;;4.05;3.10;;;32.80;32.80;;;;;;5006569;28;20053;-54
2022/08/14 12:14:23;;;;;;;3.20;3.00;;;32.90;32.90;;;;;;5005966;28;20126;-53
2022/08/14 12:17:06;;;;;;;3.50;3.30;;;32.90;32.80;;;;;;5008831;28;20052;-54
2022/08/14 12:19:49;;;;;;;3.50;3.30;;;33.00;31.90;;;;;;5003643;28;20470;-52
2022/08/14 12:22:38;;;;;;;4.15;3.85;;;33.10;31.80;;;;;;4995616;28;20046;-52
2022/08/14 12:25:18;;;;;;;3.83;3.53;;;33.20;32.40;;;;;;5002932;28;20045;-55
2022/08/14 12:27:49;;;;;;;3.97;3.55;;;33.30;32.30;;;;;;5011236;28;20049;-55
2022/08/14 12:30:39;;;;;;;3.22;3.03;;;33.30;31.50;;;;;;5004801;28;20041;-51
2022/08/14 12:33:29;;;;;;;3.30;3.10;;;33.50;31.50;;;;;;5001167;28;20121;-55
2022/08/14 12:36:07;;;;;;;3.38;3.15;;;33.60;31.10;;;;;;5008370;28;20041;-50
2022/08/14 12:38:40;;;;;;;3.22;2.95;;;33.80;30.90;;;;;;5003586;28;20046;-54
2022/08/14 12:41:15;;;;;;;3.30;2.83;;;33.90;30.50;;;;;;4996804;28;20077;-53
2022/08/14 12:43:59;;;;;;;3.42;3.22;;;34.00;30.70;;;;;;5002989;28;20485;-55
2022/08/14 12:46:29;;;;;;;3.47;3.17;;;34.10;30.60;;;;;;5009288;28;20072;-52
2022/08/14 12:49:03;;;;;;;3.17;2.90;;;34.30;30.70;;;;;;5007425;28;20050;-53
2022/08/14 12:51:33;;;;;;;4.50;3.15;;;34.40;30.00;;;;;;5004648;28;20038;-54
2022/08/14 12:54:16;;;;;;;3.50;3.30;;;34.50;30.00;;;;;;5013250;28;20038;-51
2022/08/14 12:57:03;;;;;;;3.50;3.20;;;34.50;30.10;;;;;;5000259;28;20070;-52
2022/08/14 12:59:34;;;;;;;3.83;3.05;;;34.60;30.00;;;;;;5012081;28;20560;-55
2022/08/14 13:02:22;;;;;;;3.35;3.10;;;34.70;30.00;;;;;;5006896;28;20042;-52
2022/08/14 13:04:56;;;;;;;3.70;3.45;;;34.70;29.70;;;;;;4993572;28;20426;-55
2022/08/14 13:07:27;;;;;;;2.92;2.72;;;34.80;29.10;;;;;;5001731;28;20061;-51
2022/08/14 13:09:59;;;;;;;3.30;3.10;;;34.90;29.00;;;;;;5007092;28;20116;-54
2022/08/14 13:12:48;;;;;;;3.47;3.28;;;35.10;29.60;;;;;;4993050;28;20125;-50
2022/08/14 13:15:37;;;;;;;3.72;3.30;;;35.20;29.60;;;;;;4993290;28;20045;-51
2022/08/14 13:18:11;;;;;;;3.47;3.28;;;35.40;29.30;;;;;;4998852;28;20041;-53
2022/08/14 13:20:46;;;;;;;3.20;3.00;;;35.40;29.00;;;;;;5004173;28;20049;-51
2022/08/14 13:23:31;;;;;;;3.33;3.03;;;35.70;29.10;;;;;;4993201;28;20126;-51
2022/08/14 13:25:58;;;;;;;3.53;3.22;;;35.70;29.00;;;;;;4990040;28;20045;-51
2022/08/14 13:28:26;;;;;;;3.47;3.25;;;35.80;28.80;;;;;;4998049;28;20045;-56
2022/08/14 13:31:04;;;;;;;3.33;2.70;;;35.90;28.80;;;;;;5004258;28;20045;-51
2022/08/14 13:33:40;;;;;;;3.00;2.80;;;36.10;29.20;;;;;;5012207;28;20069;-55
2022/08/14 13:36:09;;;;;;;3.58;3.38;;;36.30;29.10;;;;;;5002895;28;20050;-55
2022/08/14 13:38:59;;;;;;;4.80;3.25;;;36.50;28.50;;;;;;4997744;28;20133;-52
2022/08/14 13:41:32;;;;;;;3.10;2.90;;;36.80;28.40;;;;;;5012305;28;20057;-53
2022/08/14 13:44:03;;;;;;;3.10;2.90;;;36.90;28.10;;;;;;5004960;28;20046;-55
2022/08/14 13:46:30;;;;;;;2.80;2.60;;;37.30;28.50;;;;;;5006226;28;20054;-54
2022/08/14 13:49:00;;;;;;;6.22;2.85;;;37.70;28.30;;;;;;5009010;28;20461;-54
2022/08/14 13:51:32;;;;;;;3.08;2.30;;;38.60;28.20;;;;;;5012092;28;20418;-55
2022/08/14 13:54:03;;;;;;;2.63;2.42;;;39.50;27.40;;;;;;5008024;28;20049;-55
2022/08/14 13:56:39;;;;;;;2.75;2.55;;;40.50;27.20;;;;;;4998841;28;20053;-53